sensor_id;sensor_type;location;lat;lon;timestamp;P1;durP1;ratioP1;P2;durP2;ratioP2
69246;SDS011;56358;56.328;43.992;2022-07-23T00:00:55;15.10;;;8.43;;
69246;SDS011;56358;56.328;43.992;2022-07-23T00:02:56;18.40;;;8.60;;
69246;SDS011;56358;56.328;43.992;2022-07-23T00:05:00;14.15;;;8.30;;
69246;SDS011;56358;56.328;43.992;2022-07-23T00:07:01;15.48;;;8.82;;
69246;SDS011;56358;56.328;43.992;2022-07-23T00:09:02;13.82;;;8.25;;
69246;SDS011;56358;56.328;43.992;2022-07-23T00:11:03;13.15;;;8.30;;
69246;SDS011;56358;56.328;43.992;2022-07-23T00:13:04;14.48;;;7.75;;
69246;SDS011;56358;56.328;43.992;2022-07-23T00:15:05;14.32;;;8.38;;
69246;SDS011;56358;56.328;43.992;2022-07-23T00:17:06;17.55;;;8.55;;
69246;SDS011;56358;56.328;43.992;2022-07-23T00:19:07;12.82;;;8.00;;
69246;SDS011;56358;56.328;43.992;2022-07-23T00:21:08;11.45;;;8.07;;
69246;SDS011;56358;56.328;43.992;2022-07-23T00:23:08;11.98;;;7.20;;
69246;SDS011;56358;56.328;43.992;2022-07-23T00:25:12;11.10;;;7.03;;
69246;SDS011;56358;56.328;43.992;2022-07-23T00:27:13;11.68;;;7.53;;
69246;SDS011;56358;56.328;43.992;2022-07-23T00:29:13;12.25;;;7.30;;
69246;SDS011;56358;56.328;43.992;2022-07-23T00:31:14;12.80;;;8.45;;
69246;SDS011;56358;56.328;43.992;2022-07-23T00:33:15;11.60;;;7.25;;
69246;SDS011;56358;56.328;43.992;2022-07-23T00:35:16;12.85;;;7.70;;
69246;SDS011;56358;56.328;43.992;2022-07-23T00:37:20;12.30;;;7.70;;
69246;SDS011;56358;56.328;43.992;2022-07-23T00:39:21;13.70;;;7.43;;
69246;SDS011;56358;56.328;43.992;2022-07-23T00:41:22;13.30;;;7.93;;
69246;SDS011;56358;56.328;43.992;2022-07-23T00:43:23;10.57;;;6.78;;
69246;SDS011;56358;56.328;43.992;2022-07-23T00:45:25;15.38;;;7.32;;
69246;SDS011;56358;56.328;43.992;2022-07-23T00:47:26;12.30;;;7.97;;
69246;SDS011;56358;56.328;43.992;2022-07-23T00:49:29;12.48;;;7.78;;
69246;SDS011;56358;56.328;43.992;2022-07-23T00:51:30;14.48;;;7.57;;
69246;SDS011;56358;56.328;43.992;2022-07-23T00:53:31;9.82;;;7.40;;
69246;SDS011;56358;56.328;43.992;2022-07-23T00:55:32;11.85;;;7.40;;
69246;SDS011;56358;56.328;43.992;2022-07-23T00:57:33;14.80;;;8.30;;
69246;SDS011;56358;56.328;43.992;2022-07-23T00:59:34;14.25;;;8.00;;
69246;SDS011;56358;56.328;43.992;2022-07-23T01:01:35;15.77;;;8.50;;
69246;SDS011;56358;56.328;43.992;2022-07-23T01:03:36;13.10;;;8.07;;
69246;SDS011;56358;56.328;43.992;2022-07-23T01:05:37;12.38;;;8.07;;
69246;SDS011;56358;56.328;43.992;2022-07-23T01:07:38;11.35;;;7.85;;
69246;SDS011;56358;56.328;43.992;2022-07-23T01:09:39;15.50;;;9.07;;
69246;SDS011;56358;56.328;43.992;2022-07-23T01:11:40;18.73;;;10.95;;
69246;SDS011;56358;56.328;43.992;2022-07-23T01:13:42;17.23;;;11.05;;
69246;SDS011;56358;56.328;43.992;2022-07-23T01:15:43;24.63;;;12.63;;
69246;SDS011;56358;56.328;43.992;2022-07-23T01:17:44;18.75;;;12.60;;
69246;SDS011;56358;56.328;43.992;2022-07-23T01:19:44;24.17;;;12.98;;
69246;SDS011;56358;56.328;43.992;2022-07-23T01:21:50;18.50;;;11.95;;
69246;SDS011;56358;56.328;43.992;2022-07-23T01:23:53;19.42;;;12.05;;
69246;SDS011;56358;56.328;43.992;2022-07-23T01:25:56;20.60;;;12.15;;
69246;SDS011;56358;56.328;43.992;2022-07-23T01:27:57;22.17;;;10.88;;
69246;SDS011;56358;56.328;43.992;2022-07-23T01:29:59;18.20;;;11.35;;
69246;SDS011;56358;56.328;43.992;2022-07-23T01:32:01;24.80;;;12.13;;
69246;SDS011;56358;56.328;43.992;2022-07-23T01:34:02;18.33;;;11.40;;
69246;SDS011;56358;56.328;43.992;2022-07-23T01:36:03;18.42;;;10.40;;
69246;SDS011;56358;56.328;43.992;2022-07-23T01:38:03;17.38;;;9.95;;
69246;SDS011;56358;56.328;43.992;2022-07-23T01:40:06;21.00;;;11.68;;
69246;SDS011;56358;56.328;43.992;2022-07-23T01:42:07;17.42;;;9.73;;
69246;SDS011;56358;56.328;43.992;2022-07-23T01:44:10;17.23;;;9.90;;
69246;SDS011;56358;56.328;43.992;2022-07-23T01:46:11;16.42;;;9.50;;
69246;SDS011;56358;56.328;43.992;2022-07-23T01:48:12;15.18;;;8.70;;
69246;SDS011;56358;56.328;43.992;2022-07-23T01:50:13;18.45;;;9.18;;
69246;SDS011;56358;56.328;43.992;2022-07-23T01:52:16;15.57;;;8.57;;
69246;SDS011;56358;56.328;43.992;2022-07-23T01:54:17;17.48;;;9.38;;
69246;SDS011;56358;56.328;43.992;2022-07-23T01:56:18;16.48;;;9.02;;
69246;SDS011;56358;56.328;43.992;2022-07-23T01:58:20;17.13;;;9.82;;
69246;SDS011;56358;56.328;43.992;2022-07-23T02:00:24;13.93;;;8.82;;
69246;SDS011;56358;56.328;43.992;2022-07-23T02:02:25;13.25;;;8.48;;
69246;SDS011;56358;56.328;43.992;2022-07-23T02:04:25;11.45;;;7.88;;
69246;SDS011;56358;56.328;43.992;2022-07-23T02:06:26;14.45;;;8.57;;
69246;SDS011;56358;56.328;43.992;2022-07-23T02:08:27;13.60;;;8.43;;
69246;SDS011;56358;56.328;43.992;2022-07-23T02:10:27;20.70;;;10.00;;
69246;SDS011;56358;56.328;43.992;2022-07-23T02:12:28;13.23;;;8.20;;
69246;SDS011;56358;56.328;43.992;2022-07-23T02:14:49;16.15;;;8.43;;
69246;SDS011;56358;56.328;43.992;2022-07-23T02:16:50;14.18;;;8.65;;
69246;SDS011;56358;56.328;43.992;2022-07-23T02:18:50;15.55;;;9.38;;
69246;SDS011;56358;56.328;43.992;2022-07-23T02:20:51;22.02;;;10.32;;
69246;SDS011;56358;56.328;43.992;2022-07-23T02:22:52;14.90;;;8.75;;
69246;SDS011;56358;56.328;43.992;2022-07-23T02:24:52;18.25;;;10.10;;
69246;SDS011;56358;56.328;43.992;2022-07-23T02:26:53;19.40;;;9.95;;
69246;SDS011;56358;56.328;43.992;2022-07-23T02:28:54;20.00;;;10.63;;
69246;SDS011;56358;56.328;43.992;2022-07-23T02:30:54;16.67;;;10.20;;
69246;SDS011;56358;56.328;43.992;2022-07-23T02:32:55;18.13;;;10.50;;
69246;SDS011;56358;56.328;43.992;2022-07-23T02:34:58;19.60;;;10.73;;
69246;SDS011;56358;56.328;43.992;2022-07-23T02:36:59;20.90;;;11.02;;
69246;SDS011;56358;56.328;43.992;2022-07-23T02:38:59;17.20;;;11.90;;
69246;SDS011;56358;56.328;43.992;2022-07-23T02:41:00;21.63;;;12.68;;
69246;SDS011;56358;56.328;43.992;2022-07-23T02:43:00;21.55;;;11.43;;
69246;SDS011;56358;56.328;43.992;2022-07-23T02:45:01;21.15;;;11.88;;
69246;SDS011;56358;56.328;43.992;2022-07-23T02:47:05;17.52;;;12.15;;
69246;SDS011;56358;56.328;43.992;2022-07-23T02:49:06;20.30;;;11.88;;
69246;SDS011;56358;56.328;43.992;2022-07-23T02:51:07;22.15;;;12.70;;
69246;SDS011;56358;56.328;43.992;2022-07-23T02:53:07;20.08;;;13.35;;
69246;SDS011;56358;56.328;43.992;2022-07-23T02:55:08;19.92;;;12.43;;
69246;SDS011;56358;56.328;43.992;2022-07-23T02:57:09;23.40;;;13.30;;
69246;SDS011;56358;56.328;43.992;2022-07-23T02:59:10;21.43;;;12.53;;
69246;SDS011;56358;56.328;43.992;2022-07-23T03:01:10;17.60;;;10.68;;
69246;SDS011;56358;56.328;43.992;2022-07-23T03:03:11;14.50;;;8.93;;
69246;SDS011;56358;56.328;43.992;2022-07-23T03:05:12;13.10;;;8.50;;
69246;SDS011;56358;56.328;43.992;2022-07-23T03:07:15;11.40;;;8.00;;
69246;SDS011;56358;56.328;43.992;2022-07-23T03:09:16;12.18;;;7.85;;
69246;SDS011;56358;56.328;43.992;2022-07-23T03:11:17;13.98;;;8.93;;
69246;SDS011;56358;56.328;43.992;2022-07-23T03:13:18;13.30;;;8.50;;
69246;SDS011;56358;56.328;43.992;2022-07-23T03:15:19;12.25;;;7.85;;
69246;SDS011;56358;56.328;43.992;2022-07-23T03:17:19;12.88;;;8.43;;
69246;SDS011;56358;56.328;43.992;2022-07-23T03:19:20;11.95;;;8.13;;
69246;SDS011;56358;56.328;43.992;2022-07-23T03:21:21;11.88;;;7.75;;
69246;SDS011;56358;56.328;43.992;2022-07-23T03:23:21;10.65;;;7.60;;
69246;SDS011;56358;56.328;43.992;2022-07-23T03:25:22;10.90;;;7.68;;
69246;SDS011;56358;56.328;43.992;2022-07-23T03:27:23;11.38;;;7.85;;
69246;SDS011;56358;56.328;43.992;2022-07-23T03:29:26;12.57;;;7.88;;
69246;SDS011;56358;56.328;43.992;2022-07-23T03:31:27;12.70;;;7.82;;
69246;SDS011;56358;56.328;43.992;2022-07-23T03:33:27;11.27;;;7.85;;
69246;SDS011;56358;56.328;43.992;2022-07-23T03:35:28;12.52;;;8.15;;
69246;SDS011;56358;56.328;43.992;2022-07-23T03:37:29;11.35;;;7.43;;
69246;SDS011;56358;56.328;43.992;2022-07-23T03:39:29;13.80;;;8.18;;
69246;SDS011;56358;56.328;43.992;2022-07-23T03:41:30;11.63;;;7.72;;
69246;SDS011;56358;56.328;43.992;2022-07-23T03:43:31;10.48;;;7.60;;
69246;SDS011;56358;56.328;43.992;2022-07-23T03:45:31;11.55;;;8.27;;
69246;SDS011;56358;56.328;43.992;2022-07-23T03:47:32;12.70;;;7.90;;
69246;SDS011;56358;56.328;43.992;2022-07-23T03:49:34;13.73;;;8.60;;
69246;SDS011;56358;56.328;43.992;2022-07-23T03:51:35;11.05;;;7.80;;
69246;SDS011;56358;56.328;43.992;2022-07-23T03:53:35;13.15;;;8.48;;
69246;SDS011;56358;56.328;43.992;2022-07-23T03:55:36;12.57;;;8.80;;
69246;SDS011;56358;56.328;43.992;2022-07-23T03:57:37;13.40;;;8.88;;
69246;SDS011;56358;56.328;43.992;2022-07-23T03:59:37;11.75;;;8.10;;
69246;SDS011;56358;56.328;43.992;2022-07-23T04:01:40;12.18;;;8.18;;
69246;SDS011;56358;56.328;43.992;2022-07-23T04:03:41;13.50;;;9.30;;
69246;SDS011;56358;56.328;43.992;2022-07-23T04:05:42;11.30;;;8.57;;
69246;SDS011;56358;56.328;43.992;2022-07-23T04:07:42;14.80;;;9.73;;
69246;SDS011;56358;56.328;43.992;2022-07-23T04:09:43;14.18;;;8.98;;
69246;SDS011;56358;56.328;43.992;2022-07-23T04:11:44;13.38;;;8.90;;
69246;SDS011;56358;56.328;43.992;2022-07-23T04:13:45;14.02;;;8.88;;
69246;SDS011;56358;56.328;43.992;2022-07-23T04:15:45;13.68;;;9.23;;
69246;SDS011;56358;56.328;43.992;2022-07-23T04:17:46;12.75;;;8.55;;
69246;SDS011;56358;56.328;43.992;2022-07-23T04:19:47;14.10;;;9.70;;
69246;SDS011;56358;56.328;43.992;2022-07-23T04:21:48;14.02;;;9.90;;
69246;SDS011;56358;56.328;43.992;2022-07-23T04:23:48;15.68;;;9.55;;
69246;SDS011;56358;56.328;43.992;2022-07-23T04:25:49;14.88;;;9.95;;
69246;SDS011;56358;56.328;43.992;2022-07-23T04:27:50;14.73;;;10.40;;
69246;SDS011;56358;56.328;43.992;2022-07-23T04:29:53;14.85;;;9.95;;
69246;SDS011;56358;56.328;43.992;2022-07-23T04:33:54;13.82;;;9.90;;
69246;SDS011;56358;56.328;43.992;2022-07-23T04:35:54;16.92;;;10.10;;
69246;SDS011;56358;56.328;43.992;2022-07-23T04:37:55;13.52;;;9.75;;
69246;SDS011;56358;56.328;43.992;2022-07-23T04:39:56;13.82;;;9.93;;
69246;SDS011;56358;56.328;43.992;2022-07-23T04:41:56;12.38;;;9.65;;
69246;SDS011;56358;56.328;43.992;2022-07-23T04:43:57;15.70;;;10.02;;
69246;SDS011;56358;56.328;43.992;2022-07-23T04:45:58;14.40;;;10.52;;
69246;SDS011;56358;56.328;43.992;2022-07-23T04:47:58;14.05;;;10.25;;
69246;SDS011;56358;56.328;43.992;2022-07-23T04:49:59;14.40;;;10.15;;
69246;SDS011;56358;56.328;43.992;2022-07-23T04:52:00;16.75;;;10.65;;
69246;SDS011;56358;56.328;43.992;2022-07-23T04:54:01;14.05;;;9.98;;
69246;SDS011;56358;56.328;43.992;2022-07-23T04:56:01;14.63;;;11.05;;
69246;SDS011;56358;56.328;43.992;2022-07-23T04:58:02;14.18;;;9.88;;
69246;SDS011;56358;56.328;43.992;2022-07-23T05:00:03;14.77;;;10.23;;
69246;SDS011;56358;56.328;43.992;2022-07-23T05:02:05;16.20;;;10.27;;
69246;SDS011;56358;56.328;43.992;2022-07-23T05:04:05;13.45;;;10.13;;
69246;SDS011;56358;56.328;43.992;2022-07-23T05:06:06;15.38;;;10.43;;
69246;SDS011;56358;56.328;43.992;2022-07-23T05:08:07;14.88;;;10.55;;
69246;SDS011;56358;56.328;43.992;2022-07-23T05:10:08;15.57;;;10.55;;
69246;SDS011;56358;56.328;43.992;2022-07-23T05:12:10;14.40;;;10.82;;
69246;SDS011;56358;56.328;43.992;2022-07-23T05:14:11;14.63;;;11.55;;
69246;SDS011;56358;56.328;43.992;2022-07-23T05:16:12;17.00;;;11.75;;
69246;SDS011;56358;56.328;43.992;2022-07-23T05:18:13;16.08;;;11.18;;
69246;SDS011;56358;56.328;43.992;2022-07-23T05:20:14;15.45;;;10.98;;
69246;SDS011;56358;56.328;43.992;2022-07-23T05:22:14;14.38;;;10.43;;
69246;SDS011;56358;56.328;43.992;2022-07-23T05:24:15;14.55;;;10.32;;
69246;SDS011;56358;56.328;43.992;2022-07-23T05:26:16;16.00;;;10.70;;
69246;SDS011;56358;56.328;43.992;2022-07-23T05:28:16;14.82;;;10.82;;
69246;SDS011;56358;56.328;43.992;2022-07-23T05:30:17;14.60;;;10.80;;
69246;SDS011;56358;56.328;43.992;2022-07-23T05:32:20;17.95;;;10.95;;
69246;SDS011;56358;56.328;43.992;2022-07-23T05:34:21;16.13;;;11.15;;
69246;SDS011;56358;56.328;43.992;2022-07-23T05:36:21;16.58;;;11.15;;
69246;SDS011;56358;56.328;43.992;2022-07-23T05:38:22;15.32;;;11.02;;
69246;SDS011;56358;56.328;43.992;2022-07-23T05:40:23;15.65;;;11.13;;
69246;SDS011;56358;56.328;43.992;2022-07-23T05:42:23;14.15;;;10.60;;
69246;SDS011;56358;56.328;43.992;2022-07-23T05:44:24;14.25;;;11.05;;
69246;SDS011;56358;56.328;43.992;2022-07-23T05:46:25;17.40;;;11.45;;
69246;SDS011;56358;56.328;43.992;2022-07-23T05:48:25;14.80;;;10.77;;
69246;SDS011;56358;56.328;43.992;2022-07-23T05:50:26;16.20;;;11.27;;
69246;SDS011;56358;56.328;43.992;2022-07-23T05:52:27;14.68;;;10.88;;
69246;SDS011;56358;56.328;43.992;2022-07-23T05:54:28;17.15;;;10.98;;
69246;SDS011;56358;56.328;43.992;2022-07-23T05:56:28;16.65;;;11.38;;
69246;SDS011;56358;56.328;43.992;2022-07-23T05:58:29;15.43;;;11.00;;
69246;SDS011;56358;56.328;43.992;2022-07-23T06:00:30;15.63;;;10.77;;
69246;SDS011;56358;56.328;43.992;2022-07-23T06:02:30;17.48;;;11.73;;
69246;SDS011;56358;56.328;43.992;2022-07-23T06:04:31;15.75;;;11.35;;
69246;SDS011;56358;56.328;43.992;2022-07-23T06:06:32;16.52;;;11.25;;
69246;SDS011;56358;56.328;43.992;2022-07-23T06:08:32;16.35;;;11.50;;
69246;SDS011;56358;56.328;43.992;2022-07-23T06:10:33;15.38;;;10.52;;
69246;SDS011;56358;56.328;43.992;2022-07-23T06:12:34;17.13;;;11.13;;
69246;SDS011;56358;56.328;43.992;2022-07-23T06:14:35;16.05;;;11.45;;
69246;SDS011;56358;56.328;43.992;2022-07-23T06:16:36;14.18;;;10.77;;
69246;SDS011;56358;56.328;43.992;2022-07-23T06:18:39;15.50;;;10.98;;
69246;SDS011;56358;56.328;43.992;2022-07-23T06:20:40;15.02;;;11.15;;
69246;SDS011;56358;56.328;43.992;2022-07-23T06:22:41;15.60;;;11.10;;
69246;SDS011;56358;56.328;43.992;2022-07-23T06:24:42;14.38;;;10.73;;
69246;SDS011;56358;56.328;43.992;2022-07-23T06:26:42;15.75;;;11.05;;
69246;SDS011;56358;56.328;43.992;2022-07-23T06:28:43;17.05;;;10.90;;
69246;SDS011;56358;56.328;43.992;2022-07-23T06:30:44;16.20;;;11.70;;
69246;SDS011;56358;56.328;43.992;2022-07-23T06:32:45;15.23;;;11.48;;
69246;SDS011;56358;56.328;43.992;2022-07-23T06:34:47;14.30;;;10.88;;
69246;SDS011;56358;56.328;43.992;2022-07-23T06:36:48;17.67;;;11.88;;
69246;SDS011;56358;56.328;43.992;2022-07-23T06:38:48;15.57;;;11.32;;
69246;SDS011;56358;56.328;43.992;2022-07-23T06:40:49;17.52;;;12.00;;
69246;SDS011;56358;56.328;43.992;2022-07-23T06:42:50;16.70;;;11.00;;
69246;SDS011;56358;56.328;43.992;2022-07-23T06:44:50;14.98;;;10.85;;
69246;SDS011;56358;56.328;43.992;2022-07-23T06:46:51;14.15;;;10.73;;
69246;SDS011;56358;56.328;43.992;2022-07-23T06:48:52;15.57;;;10.32;;
69246;SDS011;56358;56.328;43.992;2022-07-23T06:50:52;14.70;;;10.93;;
69246;SDS011;56358;56.328;43.992;2022-07-23T06:52:53;15.93;;;11.07;;
69246;SDS011;56358;56.328;43.992;2022-07-23T06:54:54;15.05;;;10.77;;
69246;SDS011;56358;56.328;43.992;2022-07-23T06:56:55;14.73;;;10.50;;
69246;SDS011;56358;56.328;43.992;2022-07-23T06:58:56;17.00;;;11.35;;
69246;SDS011;56358;56.328;43.992;2022-07-23T07:00:57;15.85;;;11.20;;
69246;SDS011;56358;56.328;43.992;2022-07-23T07:02:58;15.48;;;11.70;;
69246;SDS011;56358;56.328;43.992;2022-07-23T07:04:59;14.90;;;10.60;;
69246;SDS011;56358;56.328;43.992;2022-07-23T07:06:59;14.70;;;10.57;;
69246;SDS011;56358;56.328;43.992;2022-07-23T07:09:00;15.68;;;11.70;;
69246;SDS011;56358;56.328;43.992;2022-07-23T07:11:03;18.13;;;11.15;;
69246;SDS011;56358;56.328;43.992;2022-07-23T07:13:04;16.42;;;10.90;;
69246;SDS011;56358;56.328;43.992;2022-07-23T07:15:05;16.73;;;11.43;;
69246;SDS011;56358;56.328;43.992;2022-07-23T07:17:06;19.17;;;11.80;;
69246;SDS011;56358;56.328;43.992;2022-07-23T07:19:07;15.73;;;11.18;;
69246;SDS011;56358;56.328;43.992;2022-07-23T07:21:07;15.05;;;10.88;;
69246;SDS011;56358;56.328;43.992;2022-07-23T07:23:08;13.57;;;10.38;;
69246;SDS011;56358;56.328;43.992;2022-07-23T07:25:09;16.02;;;11.23;;
69246;SDS011;56358;56.328;43.992;2022-07-23T07:27:11;16.13;;;11.20;;
69246;SDS011;56358;56.328;43.992;2022-07-23T07:29:11;16.25;;;11.15;;
69246;SDS011;56358;56.328;43.992;2022-07-23T07:31:12;14.90;;;10.32;;
69246;SDS011;56358;56.328;43.992;2022-07-23T07:33:13;15.45;;;11.35;;
69246;SDS011;56358;56.328;43.992;2022-07-23T07:35:13;14.77;;;10.68;;
69246;SDS011;56358;56.328;43.992;2022-07-23T07:37:14;16.30;;;10.50;;
69246;SDS011;56358;56.328;43.992;2022-07-23T07:39:15;15.10;;;10.88;;
69246;SDS011;56358;56.328;43.992;2022-07-23T07:41:16;16.20;;;11.02;;
69246;SDS011;56358;56.328;43.992;2022-07-23T07:43:16;19.27;;;11.10;;
69246;SDS011;56358;56.328;43.992;2022-07-23T07:45:19;15.60;;;10.73;;
69246;SDS011;56358;56.328;43.992;2022-07-23T07:47:21;14.45;;;10.77;;
69246;SDS011;56358;56.328;43.992;2022-07-23T07:49:22;14.18;;;11.15;;
69246;SDS011;56358;56.328;43.992;2022-07-23T07:51:26;16.40;;;10.98;;
69246;SDS011;56358;56.328;43.992;2022-07-23T07:53:27;14.98;;;10.82;;
69246;SDS011;56358;56.328;43.992;2022-07-23T07:55:28;14.70;;;10.57;;
69246;SDS011;56358;56.328;43.992;2022-07-23T07:57:29;14.45;;;10.35;;
69246;SDS011;56358;56.328;43.992;2022-07-23T07:59:29;14.77;;;10.45;;
69246;SDS011;56358;56.328;43.992;2022-07-23T08:01:30;13.63;;;10.35;;
69246;SDS011;56358;56.328;43.992;2022-07-23T08:03:32;16.63;;;11.52;;
69246;SDS011;56358;56.328;43.992;2022-07-23T08:05:32;14.93;;;11.02;;
69246;SDS011;56358;56.328;43.992;2022-07-23T08:07:33;16.40;;;10.68;;
69246;SDS011;56358;56.328;43.992;2022-07-23T08:09:34;17.23;;;11.23;;
69246;SDS011;56358;56.328;43.992;2022-07-23T08:11:34;12.88;;;10.43;;
69246;SDS011;56358;56.328;43.992;2022-07-23T08:13:35;23.05;;;15.35;;
69246;SDS011;56358;56.328;43.992;2022-07-23T08:15:36;16.65;;;11.52;;
69246;SDS011;56358;56.328;43.992;2022-07-23T08:17:39;16.85;;;11.70;;
69246;SDS011;56358;56.328;43.992;2022-07-23T08:19:41;14.73;;;10.80;;
69246;SDS011;56358;56.328;43.992;2022-07-23T08:21:42;15.60;;;11.65;;
69246;SDS011;56358;56.328;43.992;2022-07-23T08:23:43;16.38;;;11.75;;
69246;SDS011;56358;56.328;43.992;2022-07-23T08:25:43;15.23;;;10.93;;
69246;SDS011;56358;56.328;43.992;2022-07-23T08:27:44;13.50;;;10.35;;
69246;SDS011;56358;56.328;43.992;2022-07-23T08:29:45;15.60;;;10.68;;
69246;SDS011;56358;56.328;43.992;2022-07-23T08:31:46;15.57;;;10.70;;
69246;SDS011;56358;56.328;43.992;2022-07-23T08:33:46;13.27;;;10.45;;
69246;SDS011;56358;56.328;43.992;2022-07-23T08:35:50;14.00;;;10.77;;
69246;SDS011;56358;56.328;43.992;2022-07-23T08:37:56;13.00;;;10.30;;
69246;SDS011;56358;56.328;43.992;2022-07-23T08:39:57;15.70;;;10.50;;
69246;SDS011;56358;56.328;43.992;2022-07-23T08:41:58;14.10;;;10.73;;
69246;SDS011;56358;56.328;43.992;2022-07-23T08:43:58;15.95;;;10.77;;
69246;SDS011;56358;56.328;43.992;2022-07-23T08:46:01;15.18;;;10.88;;
69246;SDS011;56358;56.328;43.992;2022-07-23T08:48:03;13.25;;;9.90;;
69246;SDS011;56358;56.328;43.992;2022-07-23T08:50:07;12.90;;;9.70;;
69246;SDS011;56358;56.328;43.992;2022-07-23T08:52:08;15.10;;;9.95;;
69246;SDS011;56358;56.328;43.992;2022-07-23T08:54:12;15.75;;;10.63;;
69246;SDS011;56358;56.328;43.992;2022-07-23T08:56:13;13.88;;;10.10;;
69246;SDS011;56358;56.328;43.992;2022-07-23T08:58:14;15.18;;;10.60;;
69246;SDS011;56358;56.328;43.992;2022-07-23T09:00:16;17.08;;;10.20;;
69246;SDS011;56358;56.328;43.992;2022-07-23T09:02:18;15.25;;;10.38;;
69246;SDS011;56358;56.328;43.992;2022-07-23T09:04:19;13.75;;;10.43;;
69246;SDS011;56358;56.328;43.992;2022-07-23T09:08:23;15.85;;;10.20;;
69246;SDS011;56358;56.328;43.992;2022-07-23T09:11:05;14.13;;;9.65;;
69246;SDS011;56358;56.328;43.992;2022-07-23T09:13:14;14.73;;;9.77;;
69246;SDS011;56358;56.328;43.992;2022-07-23T09:15:26;15.10;;;10.57;;
69246;SDS011;56358;56.328;43.992;2022-07-23T09:17:26;13.55;;;10.05;;
69246;SDS011;56358;56.328;43.992;2022-07-23T09:19:27;15.10;;;9.93;;
69246;SDS011;56358;56.328;43.992;2022-07-23T09:21:34;13.50;;;9.93;;
69246;SDS011;56358;56.328;43.992;2022-07-23T09:23:37;13.25;;;9.48;;
69246;SDS011;56358;56.328;43.992;2022-07-23T09:29:57;14.05;;;9.90;;
69246;SDS011;56358;56.328;43.992;2022-07-23T09:31:59;13.63;;;10.65;;
69246;SDS011;56358;56.328;43.992;2022-07-23T09:34:06;14.77;;;10.77;;
69246;SDS011;56358;56.328;43.992;2022-07-23T09:36:08;13.35;;;9.27;;
69246;SDS011;56358;56.328;43.992;2022-07-23T09:38:09;13.38;;;10.25;;
69246;SDS011;56358;56.328;43.992;2022-07-23T09:40:10;13.05;;;9.90;;
69246;SDS011;56358;56.328;43.992;2022-07-23T09:44:18;16.63;;;10.63;;
69246;SDS011;56358;56.328;43.992;2022-07-23T09:46:24;14.18;;;10.05;;
69246;SDS011;56358;56.328;43.992;2022-07-23T09:48:27;14.13;;;10.80;;
69246;SDS011;56358;56.328;43.992;2022-07-23T09:50:27;14.32;;;10.02;;
69246;SDS011;56358;56.328;43.992;2022-07-23T09:52:31;13.60;;;10.40;;
69246;SDS011;56358;56.328;43.992;2022-07-23T09:54:34;13.65;;;10.00;;
69246;SDS011;56358;56.328;43.992;2022-07-23T09:56:36;14.65;;;10.05;;
69246;SDS011;56358;56.328;43.992;2022-07-23T09:58:38;13.13;;;10.18;;
69246;SDS011;56358;56.328;43.992;2022-07-23T10:00:50;16.65;;;10.40;;
69246;SDS011;56358;56.328;43.992;2022-07-23T10:02:51;13.40;;;10.35;;
69246;SDS011;56358;56.328;43.992;2022-07-23T10:04:53;14.18;;;10.30;;
69246;SDS011;56358;56.328;43.992;2022-07-23T10:06:56;13.75;;;10.25;;
69246;SDS011;56358;56.328;43.992;2022-07-23T10:08:58;13.13;;;9.73;;
69246;SDS011;56358;56.328;43.992;2022-07-23T10:11:01;15.40;;;11.38;;
69246;SDS011;56358;56.328;43.992;2022-07-23T10:13:04;13.27;;;9.73;;
69246;SDS011;56358;56.328;43.992;2022-07-23T10:15:23;13.00;;;10.00;;
69246;SDS011;56358;56.328;43.992;2022-07-23T10:17:25;12.68;;;10.25;;
69246;SDS011;56358;56.328;43.992;2022-07-23T10:19:29;13.45;;;10.77;;
69246;SDS011;56358;56.328;43.992;2022-07-23T10:21:34;12.27;;;9.77;;
69246;SDS011;56358;56.328;43.992;2022-07-23T10:32:49;13.02;;;9.85;;
69246;SDS011;56358;56.328;43.992;2022-07-23T10:36:57;17.92;;;12.48;;
69246;SDS011;56358;56.328;43.992;2022-07-23T10:39:17;13.70;;;10.25;;
69246;SDS011;56358;56.328;43.992;2022-07-23T10:41:33;13.05;;;10.18;;
69246;SDS011;56358;56.328;43.992;2022-07-23T10:45:37;13.30;;;10.48;;
69246;SDS011;56358;56.328;43.992;2022-07-23T10:47:38;14.50;;;10.57;;
69246;SDS011;56358;56.328;43.992;2022-07-23T10:49:42;15.55;;;11.18;;
69246;SDS011;56358;56.328;43.992;2022-07-23T10:52:14;20.08;;;12.77;;
69246;SDS011;56358;56.328;43.992;2022-07-23T10:54:21;13.38;;;10.75;;
69246;SDS011;56358;56.328;43.992;2022-07-23T10:59:05;15.98;;;11.90;;
69246;SDS011;56358;56.328;43.992;2022-07-23T11:03:42;15.30;;;11.88;;
69246;SDS011;56358;56.328;43.992;2022-07-23T11:05:56;15.70;;;11.55;;
69246;SDS011;56358;56.328;43.992;2022-07-23T11:10:04;15.30;;;11.00;;
69246;SDS011;56358;56.328;43.992;2022-07-23T11:14:54;15.90;;;11.23;;
69246;SDS011;56358;56.328;43.992;2022-07-23T11:17:00;18.35;;;11.20;;
69246;SDS011;56358;56.328;43.992;2022-07-23T11:19:03;17.10;;;10.93;;
69246;SDS011;56358;56.328;43.992;2022-07-23T11:23:54;14.55;;;11.63;;
69246;SDS011;56358;56.328;43.992;2022-07-23T11:26:09;15.07;;;11.38;;
69246;SDS011;56358;56.328;43.992;2022-07-23T11:28:14;19.55;;;11.90;;
69246;SDS011;56358;56.328;43.992;2022-07-23T11:32:28;16.35;;;11.50;;
69246;SDS011;56358;56.328;43.992;2022-07-23T11:36:47;13.30;;;10.68;;
69246;SDS011;56358;56.328;43.992;2022-07-23T11:38:49;16.23;;;11.07;;
69246;SDS011;56358;56.328;43.992;2022-07-23T11:40:53;16.33;;;11.50;;
69246;SDS011;56358;56.328;43.992;2022-07-23T11:43:01;14.32;;;10.90;;
69246;SDS011;56358;56.328;43.992;2022-07-23T11:45:08;17.60;;;13.18;;
69246;SDS011;56358;56.328;43.992;2022-07-23T11:47:10;14.70;;;11.30;;
69246;SDS011;56358;56.328;43.992;2022-07-23T11:49:14;15.30;;;10.65;;
69246;SDS011;56358;56.328;43.992;2022-07-23T11:51:24;14.45;;;10.20;;
69246;SDS011;56358;56.328;43.992;2022-07-23T11:53:33;15.37;;;11.20;;
69246;SDS011;56358;56.328;43.992;2022-07-23T11:55:35;12.50;;;9.20;;
69246;SDS011;56358;56.328;43.992;2022-07-23T11:57:36;11.55;;;9.50;;
69246;SDS011;56358;56.328;43.992;2022-07-23T11:59:40;13.57;;;10.05;;
69246;SDS011;56358;56.328;43.992;2022-07-23T12:01:55;11.52;;;9.52;;
69246;SDS011;56358;56.328;43.992;2022-07-23T12:04:00;11.55;;;9.50;;
69246;SDS011;56358;56.328;43.992;2022-07-23T12:06:00;12.57;;;10.20;;
69246;SDS011;56358;56.328;43.992;2022-07-23T12:08:03;13.77;;;11.27;;
69246;SDS011;56358;56.328;43.992;2022-07-23T12:10:09;13.52;;;10.30;;
69246;SDS011;56358;56.328;43.992;2022-07-23T12:12:27;14.43;;;10.95;;
69246;SDS011;56358;56.328;43.992;2022-07-23T12:14:46;12.55;;;10.23;;
69246;SDS011;56358;56.328;43.992;2022-07-23T12:17:07;13.60;;;10.43;;
69246;SDS011;56358;56.328;43.992;2022-07-23T12:19:11;14.65;;;10.75;;
69246;SDS011;56358;56.328;43.992;2022-07-23T12:21:15;24.00;;;21.15;;
69246;SDS011;56358;56.328;43.992;2022-07-23T12:23:17;14.18;;;9.98;;
69246;SDS011;56358;56.328;43.992;2022-07-23T12:25:24;13.90;;;10.80;;
69246;SDS011;56358;56.328;43.992;2022-07-23T12:27:27;13.00;;;10.50;;
69246;SDS011;56358;56.328;43.992;2022-07-23T12:29:34;14.00;;;11.18;;